sensor_id;sensor_type;location;lat;lon;timestamp;pressure;altitude;pressure_sealevel;temperature;humidity
31595;BME280;18200;48.726;8.892;2023-05-06T00:03:38;96852.50;;;28.71;37.65
31595;BME280;18200;48.726;8.892;2023-05-06T00:07:38;96851.25;;;28.72;37.75
31595;BME280;18200;48.726;8.892;2023-05-06T00:11:39;96846.53;;;28.87;37.41
31595;BME280;18200;48.726;8.892;2023-05-06T00:15:39;96838.50;;;28.74;37.55
31595;BME280;18200;48.726;8.892;2023-05-06T00:19:40;96841.88;;;28.22;37.55
31595;BME280;18200;48.726;8.892;2023-05-06T00:23:40;96847.13;;;27.27;39.50
31595;BME280;18200;48.726;8.892;2023-05-06T00:27:40;96843.28;;;27.34;39.13
31595;BME280;18200;48.726;8.892;2023-05-06T00:31:41;96838.50;;;27.43;39.25
31595;BME280;18200;48.726;8.892;2023-05-06T00:35:41;96836.28;;;27.75;38.80
31595;BME280;18200;48.726;8.892;2023-05-06T00:39:41;96849.59;;;27.07;39.17
31595;BME280;18200;48.726;8.892;2023-05-06T00:43:42;96845.13;;;27.37;38.40
31595;BME280;18200;48.726;8.892;2023-05-06T00:47:42;96838.94;;;28.02;38.11
31595;BME280;18200;48.726;8.892;2023-05-06T00:51:43;96832.53;;;27.87;37.09
31595;BME280;18200;48.726;8.892;2023-05-06T00:55:44;96829.06;;;27.08;38.18
31595;BME280;18200;48.726;8.892;2023-05-06T00:59:45;96829.31;;;27.55;38.54
31595;BME280;18200;48.726;8.892;2023-05-06T01:03:45;96824.28;;;27.78;38.05
31595;BME280;18200;48.726;8.892;2023-05-06T01:08:41;96822.22;;;27.63;37.75
31595;BME280;18200;48.726;8.892;2023-05-06T01:12:47;96836.09;;;27.27;37.30
31595;BME280;18200;48.726;8.892;2023-05-06T01:16:53;96836.66;;;27.49;37.72
31595;BME280;18200;48.726;8.892;2023-05-06T01:20:54;96833.66;;;27.71;37.32
31595;BME280;18200;48.726;8.892;2023-05-06T01:24:55;96837.59;;;27.55;37.05
31595;BME280;18200;48.726;8.892;2023-05-06T01:28:56;96830.22;;;27.52;36.51
31595;BME280;18200;48.726;8.892;2023-05-06T01:33:11;96833.34;;;27.36;36.90
31595;BME280;18200;48.726;8.892;2023-05-06T01:41:19;96836.59;;;27.67;36.33
31595;BME280;18200;48.726;8.892;2023-05-06T01:45:23;96842.75;;;27.62;37.22
31595;BME280;18200;48.726;8.892;2023-05-06T01:49:26;96844.97;;;27.40;37.31
31595;BME280;18200;48.726;8.892;2023-05-06T01:53:28;96839.91;;;27.39;37.25
31595;BME280;18200;48.726;8.892;2023-05-06T01:57:28;96848.69;;;27.10;37.33
31595;BME280;18200;48.726;8.892;2023-05-06T02:01:28;96837.28;;;27.53;37.28
31595;BME280;18200;48.726;8.892;2023-05-06T02:05:29;96838.31;;;27.56;36.48
31595;BME280;18200;48.726;8.892;2023-05-06T02:09:31;96832.84;;;27.47;37.16
31595;BME280;18200;48.726;8.892;2023-05-06T02:13:34;96834.31;;;27.66;36.86
31595;BME280;18200;48.726;8.892;2023-05-06T02:17:36;96836.22;;;27.24;37.17
31595;BME280;18200;48.726;8.892;2023-05-06T02:21:38;96830.56;;;26.37;38.70
31595;BME280;18200;48.726;8.892;2023-05-06T02:25:38;96832.09;;;26.56;38.39
31595;BME280;18200;48.726;8.892;2023-05-06T02:29:38;96828.47;;;26.77;39.16
31595;BME280;18200;48.726;8.892;2023-05-06T02:33:39;96829.97;;;26.69;38.84
31595;BME280;18200;48.726;8.892;2023-05-06T02:37:39;96828.47;;;27.04;38.47
31595;BME280;18200;48.726;8.892;2023-05-06T02:41:39;96820.31;;;27.10;37.63
31595;BME280;18200;48.726;8.892;2023-05-06T02:45:40;96814.94;;;27.24;37.70
31595;BME280;18200;48.726;8.892;2023-05-06T02:49:40;96830.78;;;26.87;38.27
31595;BME280;18200;48.726;8.892;2023-05-06T02:53:40;96820.78;;;27.17;37.68
31595;BME280;18200;48.726;8.892;2023-05-06T02:57:41;96826.13;;;27.21;36.73
31595;BME280;18200;48.726;8.892;2023-05-06T03:01:41;96818.03;;;26.72;37.88
31595;BME280;18200;48.726;8.892;2023-05-06T03:05:41;96821.69;;;27.14;37.73
31595;BME280;18200;48.726;8.892;2023-05-06T03:09:42;96820.44;;;27.24;37.89
31595;BME280;18200;48.726;8.892;2023-05-06T03:13:43;96811.59;;;27.11;38.05
31595;BME280;18200;48.726;8.892;2023-05-06T03:17:45;96812.78;;;27.28;37.37
31595;BME280;18200;48.726;8.892;2023-05-06T03:21:46;96807.91;;;27.14;37.46
31595;BME280;18200;48.726;8.892;2023-05-06T03:25:46;96812.03;;;27.19;37.54
31595;BME280;18200;48.726;8.892;2023-05-06T03:29:47;96806.09;;;26.93;37.34
31595;BME280;18200;48.726;8.892;2023-05-06T03:33:49;96805.81;;;27.00;37.98
31595;BME280;18200;48.726;8.892;2023-05-06T03:37:50;96803.94;;;26.52;37.84
31595;BME280;18200;48.726;8.892;2023-05-06T03:41:52;96801.50;;;26.54;38.10
31595;BME280;18200;48.726;8.892;2023-05-06T03:45:53;96795.69;;;26.88;37.90
31595;BME280;18200;48.726;8.892;2023-05-06T03:49:54;96802.75;;;26.80;37.41
31595;BME280;18200;48.726;8.892;2023-05-06T03:53:54;96805.94;;;26.60;36.95
31595;BME280;18200;48.726;8.892;2023-05-06T03:57:56;96811.28;;;26.28;37.60
31595;BME280;18200;48.726;8.892;2023-05-06T04:01:56;96803.63;;;26.41;38.19
31595;BME280;18200;48.726;8.892;2023-05-06T04:05:57;96808.53;;;26.37;37.63
31595;BME280;18200;48.726;8.892;2023-05-06T04:09:59;96812.47;;;26.08;37.55
31595;BME280;18200;48.726;8.892;2023-05-06T04:14:00;96808.38;;;26.31;37.53
31595;BME280;18200;48.726;8.892;2023-05-06T04:18:01;96814.03;;;26.28;36.93
31595;BME280;18200;48.726;8.892;2023-05-06T04:22:01;96812.78;;;26.10;37.17
31595;BME280;18200;48.726;8.892;2023-05-06T04:26:02;96809.28;;;26.19;37.39
31595;BME280;18200;48.726;8.892;2023-05-06T04:30:05;96819.53;;;26.37;36.65
31595;BME280;18200;48.726;8.892;2023-05-06T04:34:07;96825.50;;;26.26;36.43
31595;BME280;18200;48.726;8.892;2023-05-06T04:38:10;96822.25;;;26.09;36.99
31595;BME280;18200;48.726;8.892;2023-05-06T04:42:14;96829.84;;;25.96;36.75
31595;BME280;18200;48.726;8.892;2023-05-06T04:46:23;96831.09;;;26.04;36.76
31595;BME280;18200;48.726;8.892;2023-05-06T04:50:24;96831.75;;;26.08;37.32
31595;BME280;18200;48.726;8.892;2023-05-06T04:54:26;96837.63;;;25.89;37.70
31595;BME280;18200;48.726;8.892;2023-05-06T04:58:26;96843.91;;;25.89;37.37
31595;BME280;18200;48.726;8.892;2023-05-06T05:02:28;96843.31;;;26.03;37.05
31595;BME280;18200;48.726;8.892;2023-05-06T05:06:29;96842.66;;;25.90;37.87
31595;BME280;18200;48.726;8.892;2023-05-06T05:10:32;96840.25;;;26.01;37.55
31595;BME280;18200;48.726;8.892;2023-05-06T05:14:33;96848.91;;;26.12;37.37
31595;BME280;18200;48.726;8.892;2023-05-06T05:18:33;96853.72;;;25.38;38.07
31595;BME280;18200;48.726;8.892;2023-05-06T05:22:40;96853.16;;;25.43;39.01
31595;BME280;18200;48.726;8.892;2023-05-06T05:26:41;96855.53;;;26.02;38.00
31595;BME280;18200;48.726;8.892;2023-05-06T05:30:42;96862.03;;;26.08;37.80
31595;BME280;18200;48.726;8.892;2023-05-06T05:34:43;96862.41;;;26.38;37.80
31595;BME280;18200;48.726;8.892;2023-05-06T05:38:43;96864.16;;;26.04;38.40
31595;BME280;18200;48.726;8.892;2023-05-06T05:42:45;96868.66;;;26.29;38.58
31595;BME280;18200;48.726;8.892;2023-05-06T05:46:54;96858.78;;;26.77;36.99
31595;BME280;18200;48.726;8.892;2023-05-06T05:50:55;96863.34;;;26.44;38.47
31595;BME280;18200;48.726;8.892;2023-05-06T05:54:56;96862.78;;;26.76;37.83
31595;BME280;18200;48.726;8.892;2023-05-06T05:58:58;96862.03;;;26.75;38.76
31595;BME280;18200;48.726;8.892;2023-05-06T06:02:59;96858.75;;;27.31;37.24
31595;BME280;18200;48.726;8.892;2023-05-06T06:07:00;96864.75;;;27.39;36.83
31595;BME280;18200;48.726;8.892;2023-05-06T06:11:07;96860.94;;;27.36;37.98
31595;BME280;18200;48.726;8.892;2023-05-06T06:15:12;96864.31;;;27.82;36.63
31595;BME280;18200;48.726;8.892;2023-05-06T06:19:14;96871.31;;;28.34;35.73
31595;BME280;18200;48.726;8.892;2023-05-06T06:23:16;96865.63;;;28.61;35.58
31595;BME280;18200;48.726;8.892;2023-05-06T06:27:16;96870.25;;;28.55;35.46
31595;BME280;18200;48.726;8.892;2023-05-06T06:31:17;96870.50;;;28.90;34.95
31595;BME280;18200;48.726;8.892;2023-05-06T06:35:17;96874.63;;;29.09;34.15
31595;BME280;18200;48.726;8.892;2023-05-06T06:39:19;96881.38;;;29.32;34.72
31595;BME280;18200;48.726;8.892;2023-05-06T06:43:19;96886.69;;;29.21;34.51
31595;BME280;18200;48.726;8.892;2023-05-06T06:47:22;96873.72;;;29.41;34.07
31595;BME280;18200;48.726;8.892;2023-05-06T06:51:23;96873.91;;;29.67;33.73
31595;BME280;18200;48.726;8.892;2023-05-06T06:55:23;96875.66;;;29.11;34.38
31595;BME280;18200;48.726;8.892;2023-05-06T06:59:24;96886.13;;;29.60;32.52
31595;BME280;18200;48.726;8.892;2023-05-06T07:03:24;96881.00;;;29.68;32.93
31595;BME280;18200;48.726;8.892;2023-05-06T07:07:24;96878.78;;;30.01;32.29
31595;BME280;18200;48.726;8.892;2023-05-06T07:11:25;96879.75;;;29.25;33.04
31595;BME280;18200;48.726;8.892;2023-05-06T07:15:25;96870.94;;;28.88;34.23
31595;BME280;18200;48.726;8.892;2023-05-06T07:19:26;96872.94;;;29.26;33.56
31595;BME280;18200;48.726;8.892;2023-05-06T07:23:27;96881.50;;;28.75;33.87
31595;BME280;18200;48.726;8.892;2023-05-06T07:27:27;96890.47;;;29.08;33.26
31595;BME280;18200;48.726;8.892;2023-05-06T07:31:32;96887.28;;;29.25;33.37
31595;BME280;18200;48.726;8.892;2023-05-06T07:35:33;96882.34;;;29.58;32.09
31595;BME280;18200;48.726;8.892;2023-05-06T07:39:33;96878.31;;;28.91;33.51
31595;BME280;18200;48.726;8.892;2023-05-06T07:43:34;96887.38;;;30.73;30.35
31595;BME280;18200;48.726;8.892;2023-05-06T07:47:34;96890.16;;;29.45;31.47
31595;BME280;18200;48.726;8.892;2023-05-06T07:51:35;96893.59;;;30.67;30.67
31595;BME280;18200;48.726;8.892;2023-05-06T07:55:36;96889.28;;;31.27;29.44
31595;BME280;18200;48.726;8.892;2023-05-06T07:59:36;96896.19;;;29.87;31.83
31595;BME280;18200;48.726;8.892;2023-05-06T08:03:37;96906.44;;;28.10;33.57
31595;BME280;18200;48.726;8.892;2023-05-06T08:07:39;96904.66;;;29.40;32.88
31595;BME280;18200;48.726;8.892;2023-05-06T08:11:40;96901.75;;;30.91;31.06
31595;BME280;18200;48.726;8.892;2023-05-06T08:15:40;96901.31;;;28.97;31.98
31595;BME280;18200;48.726;8.892;2023-05-06T08:19:41;96908.84;;;29.21;31.78
31595;BME280;18200;48.726;8.892;2023-05-06T08:23:41;96897.34;;;31.45;28.80
31595;BME280;18200;48.726;8.892;2023-05-06T08:27:41;96910.94;;;31.23;28.83
31595;BME280;18200;48.726;8.892;2023-05-06T08:31:42;96903.75;;;32.13;27.89
31595;BME280;18200;48.726;8.892;2023-05-06T08:35:42;96899.00;;;31.63;28.30
31595;BME280;18200;48.726;8.892;2023-05-06T08:39:43;96914.97;;;29.39;31.17
31595;BME280;18200;48.726;8.892;2023-05-06T08:43:45;96916.59;;;31.54;28.19
31595;BME280;18200;48.726;8.892;2023-05-06T08:47:46;96908.59;;;30.55;29.99
31595;BME280;18200;48.726;8.892;2023-05-06T08:51:48;96912.16;;;30.41;29.60
31595;BME280;18200;48.726;8.892;2023-05-06T08:55:52;96916.09;;;31.30;28.72
31595;BME280;18200;48.726;8.892;2023-05-06T08:59:53;96910.69;;;31.41;28.68
31595;BME280;18200;48.726;8.892;2023-05-06T09:03:55;96919.34;;;32.05;27.28
31595;BME280;18200;48.726;8.892;2023-05-06T09:07:56;96915.91;;;31.59;27.80
31595;BME280;18200;48.726;8.892;2023-05-06T09:11:56;96907.94;;;32.35;26.24
31595;BME280;18200;48.726;8.892;2023-05-06T09:15:56;96918.34;;;31.77;27.67
31595;BME280;18200;48.726;8.892;2023-05-06T09:19:57;96906.38;;;32.28;27.73
31595;BME280;18200;48.726;8.892;2023-05-06T09:23:58;96899.50;;;31.92;27.16
31595;BME280;18200;48.726;8.892;2023-05-06T09:28:06;96908.06;;;32.20;26.23
31595;BME280;18200;48.726;8.892;2023-05-06T09:32:07;96906.88;;;33.22;25.07
31595;BME280;18200;48.726;8.892;2023-05-06T09:36:08;96906.38;;;30.10;29.04
31595;BME280;18200;48.726;8.892;2023-05-06T09:40:12;96894.84;;;31.78;26.57
31595;BME280;18200;48.726;8.892;2023-05-06T09:44:14;96897.03;;;30.77;28.61
31595;BME280;18200;48.726;8.892;2023-05-06T09:48:14;96895.66;;;30.32;28.00
31595;BME280;18200;48.726;8.892;2023-05-06T09:52:15;96892.09;;;30.67;26.96
31595;BME280;18200;48.726;8.892;2023-05-06T09:56:16;96888.75;;;30.83;27.25
31595;BME280;18200;48.726;8.892;2023-05-06T10:00:17;96893.00;;;30.09;28.02
31595;BME280;18200;48.726;8.892;2023-05-06T10:04:20;96883.69;;;30.61;27.37
31595;BME280;18200;48.726;8.892;2023-05-06T10:08:23;96878.72;;;31.82;26.38
31595;BME280;18200;48.726;8.892;2023-05-06T10:12:24;96871.03;;;33.80;23.84
31595;BME280;18200;48.726;8.892;2023-05-06T10:16:25;96872.53;;;33.81;24.44
31595;BME280;18200;48.726;8.892;2023-05-06T10:20:29;96873.66;;;33.02;24.77
31595;BME280;18200;48.726;8.892;2023-05-06T10:24:32;96865.66;;;33.48;24.23
31595;BME280;18200;48.726;8.892;2023-05-06T10:28:41;96865.81;;;32.10;25.26
31595;BME280;18200;48.726;8.892;2023-05-06T10:32:43;96860.41;;;32.33;24.96
31595;BME280;18200;48.726;8.892;2023-05-06T10:36:44;96846.00;;;31.97;25.73
31595;BME280;18200;48.726;8.892;2023-05-06T10:40:45;96844.63;;;33.47;23.71
31595;BME280;18200;48.726;8.892;2023-05-06T10:45:01;96838.72;;;34.62;23.06
31595;BME280;18200;48.726;8.892;2023-05-06T10:53:14;96832.44;;;34.28;23.23
31595;BME280;18200;48.726;8.892;2023-05-06T10:57:16;96829.94;;;33.30;23.93
31595;BME280;18200;48.726;8.892;2023-05-06T11:01:26;96827.50;;;34.73;22.29
31595;BME280;18200;48.726;8.892;2023-05-06T11:05:27;96814.22;;;33.33;23.26
31595;BME280;18200;48.726;8.892;2023-05-06T11:09:27;96821.00;;;35.05;21.28
31595;BME280;18200;48.726;8.892;2023-05-06T11:13:33;96823.53;;;35.03;21.81
31595;BME280;18200;48.726;8.892;2023-05-06T11:17:34;96826.34;;;35.50;21.53
31595;BME280;18200;48.726;8.892;2023-05-06T11:21:35;96813.69;;;33.23;24.64
31595;BME280;18200;48.726;8.892;2023-05-06T11:25:40;96807.84;;;35.71;20.92
31595;BME280;18200;48.726;8.892;2023-05-06T11:29:42;96804.59;;;35.67;21.05
31595;BME280;18200;48.726;8.892;2023-05-06T11:33:47;96810.28;;;36.34;19.37
31595;BME280;18200;48.726;8.892;2023-05-06T11:37:50;96812.91;;;34.22;22.14
31595;BME280;18200;48.726;8.892;2023-05-06T11:41:51;96805.09;;;35.95;20.37
31595;BME280;18200;48.726;8.892;2023-05-06T11:45:52;96804.63;;;33.84;22.53
31595;BME280;18200;48.726;8.892;2023-05-06T11:49:53;96813.13;;;34.52;21.39
31595;BME280;18200;48.726;8.892;2023-05-06T11:54:08;96804.81;;;35.69;20.74
31595;BME280;18200;48.726;8.892;2023-05-06T11:58:16;96820.81;;;33.91;22.29
31595;BME280;18200;48.726;8.892;2023-05-06T12:02:17;96809.19;;;35.64;20.53
31595;BME280;18200;48.726;8.892;2023-05-06T12:06:17;96799.47;;;34.32;21.21
31595;BME280;18200;48.726;8.892;2023-05-06T12:10:19;96804.25;;;35.41;21.88
31595;BME280;18200;48.726;8.892;2023-05-06T12:14:19;96807.34;;;33.01;22.78
31595;BME280;18200;48.726;8.892;2023-05-06T12:18:21;96797.91;;;34.42;21.76
31595;BME280;18200;48.726;8.892;2023-05-06T12:22:22;96797.06;;;35.16;20.98
31595;BME280;18200;48.726;8.892;2023-05-06T12:26:26;96795.75;;;33.57;23.35
31595;BME280;18200;48.726;8.892;2023-05-06T12:30:30;96793.00;;;34.70;21.68
31595;BME280;18200;48.726;8.892;2023-05-06T12:34:40;96791.63;;;35.64;20.96
31595;BME280;18200;48.726;8.892;2023-05-06T12:38:58;96798.66;;;36.73;19.79
31595;BME280;18200;48.726;8.892;2023-05-06T12:42:59;96791.59;;;35.34;21.50
31595;BME280;18200;48.726;8.892;2023-05-06T12:47:01;96793.84;;;34.43;21.86
31595;BME280;18200;48.726;8.892;2023-05-06T12:51:21;96788.28;;;34.95;21.12
31595;BME280;18200;48.726;8.892;2023-05-06T12:55:21;96790.53;;;32.78;23.97
31595;BME280;18200;48.726;8.892;2023-05-06T12:59:25;96786.25;;;34.38;22.61
31595;BME280;18200;48.726;8.892;2023-05-06T13:03:26;96772.44;;;33.88;22.40
31595;BME280;18200;48.726;8.892;2023-05-06T13:07:26;96779.22;;;36.99;20.36
31595;BME280;18200;48.726;8.892;2023-05-06T13:11:27;96767.81;;;36.11;21.37
31595;BME280;18200;48.726;8.892;2023-05-06T13:15:27;96763.50;;;35.56;22.17
31595;BME280;18200;48.726;8.892;2023-05-06T13:19:28;96756.03;;;36.18;20.91
31595;BME280;18200;48.726;8.892;2023-05-06T13:23:28;96746.22;;;36.30;20.19
31595;BME280;18200;48.726;8.892;2023-05-06T13:27:30;96739.00;;;36.59;19.98
31595;BME280;18200;48.726;8.892;2023-05-06T13:31:31;96739.09;;;35.81;22.25
31595;BME280;18200;48.726;8.892;2023-05-06T13:35:32;96736.25;;;35.27;22.85
31595;BME280;18200;48.726;8.892;2023-05-06T13:39:32;96747.66;;;34.99;23.45
31595;BME280;18200;48.726;8.892;2023-05-06T13:43:33;96745.97;;;35.56;22.66
31595;BME280;18200;48.726;8.892;2023-05-06T13:47:33;96742.31;;;33.53;24.18
31595;BME280;18200;48.726;8.892;2023-05-06T13:51:33;96739.19;;;34.01;24.02
31595;BME280;18200;48.726;8.892;2023-05-06T13:55:34;96725.63;;;35.26;22.03
31595;BME280;18200;48.726;8.892;2023-05-06T13:59:35;96723.63;;;35.21;22.78
31595;BME280;18200;48.726;8.892;2023-05-06T14:03:35;96741.78;;;34.97;22.65
31595;BME280;18200;48.726;8.892;2023-05-06T14:07:36;96724.56;;;35.88;21.91
31595;BME280;18200;48.726;8.892;2023-05-06T14:11:36;96711.09;;;35.33;22.19
31595;BME280;18200;48.726;8.892;2023-05-06T14:15:36;96720.03;;;33.53;24.41
31595;BME280;18200;48.726;8.892;2023-05-06T14:19:37;96724.91;;;34.79;22.70
31595;BME280;18200;48.726;8.892;2023-05-06T14:23:37;96715.59;;;35.06;23.66
31595;BME280;18200;48.726;8.892;2023-05-06T14:27:38;96704.22;;;34.98;23.81
31595;BME280;18200;48.726;8.892;2023-05-06T14:31:38;96706.00;;;33.92;24.82
31595;BME280;18200;48.726;8.892;2023-05-06T14:35:39;96700.22;;;36.26;21.82
31595;BME280;18200;48.726;8.892;2023-05-06T14:39:41;96700.94;;;35.30;23.74
31595;BME280;18200;48.726;8.892;2023-05-06T14:43:41;96697.75;;;35.44;22.59
31595;BME280;18200;48.726;8.892;2023-05-06T14:47:43;96695.81;;;36.12;22.27
31595;BME280;18200;48.726;8.892;2023-05-06T14:51:43;96688.63;;;37.41;21.19
31595;BME280;18200;48.726;8.892;2023-05-06T14:55:44;96693.28;;;36.32;21.41
31595;BME280;18200;48.726;8.892;2023-05-06T14:59:45;96687.09;;;35.43;23.16
31595;BME280;18200;48.726;8.892;2023-05-06T15:03:45;96679.91;;;35.23;22.52
31595;BME280;18200;48.726;8.892;2023-05-06T15:07:45;96692.84;;;34.50;24.08
31595;BME280;18200;48.726;8.892;2023-05-06T15:11:46;96682.97;;;36.40;22.38
31595;BME280;18200;48.726;8.892;2023-05-06T15:15:46;96684.13;;;35.05;23.38
31595;BME280;18200;48.726;8.892;2023-05-06T15:19:46;96681.31;;;36.32;22.71
31595;BME280;18200;48.726;8.892;2023-05-06T15:23:48;96682.22;;;36.21;21.74
31595;BME280;18200;48.726;8.892;2023-05-06T15:27:48;96684.06;;;35.41;22.88
31595;BME280;18200;48.726;8.892;2023-05-06T15:31:49;96684.97;;;33.80;24.15
31595;BME280;18200;48.726;8.892;2023-05-06T15:35:49;96689.53;;;33.89;24.28
31595;BME280;18200;48.726;8.892;2023-05-06T15:39:49;96687.25;;;34.91;22.37
31595;BME280;18200;48.726;8.892;2023-05-06T15:43:50;96686.59;;;34.79;23.45
31595;BME280;18200;48.726;8.892;2023-05-06T15:47:50;96691.53;;;33.94;23.72
31595;BME280;18200;48.726;8.892;2023-05-06T15:51:50;96687.25;;;34.91;22.57
31595;BME280;18200;48.726;8.892;2023-05-06T15:55:51;96687.06;;;33.46;24.25
31595;BME280;18200;48.726;8.892;2023-05-06T15:59:51;96684.91;;;36.08;22.03
31595;BME280;18200;48.726;8.892;2023-05-06T16:03:51;96682.00;;;35.95;21.50
31595;BME280;18200;48.726;8.892;2023-05-06T16:07:52;96683.78;;;35.15;22.76
31595;BME280;18200;48.726;8.892;2023-05-06T16:11:54;96678.78;;;35.07;22.83
31595;BME280;18200;48.726;8.892;2023-05-06T16:15:55;96680.06;;;34.19;24.08
31595;BME280;18200;48.726;8.892;2023-05-06T16:19:55;96673.50;;;35.82;22.07
31595;BME280;18200;48.726;8.892;2023-05-06T16:23:55;96675.19;;;37.21;20.67
31595;BME280;18200;48.726;8.892;2023-05-06T16:27:56;96678.16;;;35.74;22.13
31595;BME280;18200;48.726;8.892;2023-05-06T16:31:56;96679.63;;;36.23;21.82
31595;BME280;18200;48.726;8.892;2023-05-06T16:35:56;96671.03;;;36.77;20.72
31595;BME280;18200;48.726;8.892;2023-05-06T16:39:57;96674.97;;;36.69;21.33
31595;BME280;18200;48.726;8.892;2023-05-06T16:43:57;96663.16;;;34.53;23.28
31595;BME280;18200;48.726;8.892;2023-05-06T16:47:57;96670.97;;;36.64;21.28
31595;BME280;18200;48.726;8.892;2023-05-06T16:51:58;96672.34;;;34.36;23.64
31595;BME280;18200;48.726;8.892;2023-05-06T16:56:00;96657.09;;;36.34;20.79
31595;BME280;18200;48.726;8.892;2023-05-06T17:00:02;96661.88;;;34.02;23.35
31595;BME280;18200;48.726;8.892;2023-05-06T17:04:06;96654.38;;;33.69;24.03
31595;BME280;18200;48.726;8.892;2023-05-06T17:08:07;96656.19;;;34.24;23.22
31595;BME280;18200;48.726;8.892;2023-05-06T17:12:07;96647.72;;;34.41;23.07
31595;BME280;18200;48.726;8.892;2023-05-06T17:16:08;96654.31;;;34.43;22.91
31595;BME280;18200;48.726;8.892;2023-05-06T17:20:08;96656.97;;;34.19;23.16
31595;BME280;18200;48.726;8.892;2023-05-06T17:24:09;96651.16;;;34.63;22.77
31595;BME280;18200;48.726;8.892;2023-05-06T17:28:09;96635.25;;;34.53;23.09
31595;BME280;18200;48.726;8.892;2023-05-06T17:32:10;96650.13;;;32.85;24.08
31595;BME280;18200;48.726;8.892;2023-05-06T17:36:11;96643.13;;;33.97;23.79
31595;BME280;18200;48.726;8.892;2023-05-06T17:40:12;96648.34;;;33.21;24.50
31595;BME280;18200;48.726;8.892;2023-05-06T17:44:14;96644.78;;;32.92;24.36
31595;BME280;18200;48.726;8.892;2023-05-06T17:48:16;96637.34;;;34.35;23.31
31595;BME280;18200;48.726;8.892;2023-05-06T17:52:17;96643.22;;;34.73;22.57
31595;BME280;18200;48.726;8.892;2023-05-06T17:56:17;96639.31;;;34.87;22.80
31595;BME280;18200;48.726;8.892;2023-05-06T18:00:19;96645.41;;;34.85;23.80
31595;BME280;18200;48.726;8.892;2023-05-06T18:04:20;96644.81;;;34.22;24.02
31595;BME280;18200;48.726;8.892;2023-05-06T18:08:21;96648.19;;;34.50;23.56
31595;BME280;18200;48.726;8.892;2023-05-06T18:12:21;96647.50;;;34.38;23.06
31595;BME280;18200;48.726;8.892;2023-05-06T18:16:22;96636.72;;;34.59;23.16
31595;BME280;18200;48.726;8.892;2023-05-06T18:20:23;96650.19;;;34.55;22.05
31595;BME280;18200;48.726;8.892;2023-05-06T18:24:23;96665.44;;;34.02;23.02
31595;BME280;18200;48.726;8.892;2023-05-06T18:28:24;96670.69;;;34.63;22.83
31595;BME280;18200;48.726;8.892;2023-05-06T18:32:25;96676.50;;;34.71;22.83
31595;BME280;18200;48.726;8.892;2023-05-06T18:36:25;96680.22;;;34.38;23.25
31595;BME280;18200;48.726;8.892;2023-05-06T18:40:26;96675.56;;;34.57;22.94
31595;BME280;18200;48.726;8.892;2023-05-06T18:44:26;96681.78;;;34.28;24.48
31595;BME280;18200;48.726;8.892;2023-05-06T18:48:26;96687.75;;;34.02;24.47
31595;BME280;18200;48.726;8.892;2023-05-06T18:52:29;96689.84;;;33.69;25.22
31595;BME280;18200;48.726;8.892;2023-05-06T18:56:30;96686.69;;;34.11;24.85
31595;BME280;18200;48.726;8.892;2023-05-06T19:00:31;96691.22;;;34.19;25.11
31595;BME280;18200;48.726;8.892;2023-05-06T19:04:36;96702.00;;;33.71;25.58
31595;BME280;18200;48.726;8.892;2023-05-06T19:08:40;96704.53;;;33.47;26.52
31595;BME280;18200;48.726;8.892;2023-05-06T19:12:41;96712.63;;;32.95;26.67
31595;BME280;18200;48.726;8.892;2023-05-06T19:16:41;96708.03;;;32.75;26.67
31595;BME280;18200;48.726;8.892;2023-05-06T19:20:42;96706.34;;;33.00;26.07
31595;BME280;18200;48.726;8.892;2023-05-06T19:24:42;96708.25;;;32.61;26.63
31595;BME280;18200;48.726;8.892;2023-05-06T19:28:43;96706.59;;;32.16;27.48
31595;BME280;18200;48.726;8.892;2023-05-06T19:32:43;96704.81;;;31.70;28.08
31595;BME280;18200;48.726;8.892;2023-05-06T19:36:44;96714.16;;;31.36;28.94
31595;BME280;18200;48.726;8.892;2023-05-06T19:40:44;96710.78;;;31.21;29.10
31595;BME280;18200;48.726;8.892;2023-05-06T19:44:45;96705.03;;;31.61;28.72
31595;BME280;18200;48.726;8.892;2023-05-06T19:48:47;96702.31;;;31.72;28.53
31595;BME280;18200;48.726;8.892;2023-05-06T19:52:47;96709.63;;;31.70;29.04
31595;BME280;18200;48.726;8.892;2023-05-06T19:56:47;96717.78;;;31.42;28.64
31595;BME280;18200;48.726;8.892;2023-05-06T20:00:47;96712.91;;;31.06;29.90
31595;BME280;18200;48.726;8.892;2023-05-06T20:04:48;96710.78;;;31.21;29.14
31595;BME280;18200;48.726;8.892;2023-05-06T20:08:48;96712.78;;;31.20;29.62
31595;BME280;18200;48.726;8.892;2023-05-06T20:12:49;96710.13;;;31.37;29.29
31595;BME280;18200;48.726;8.892;2023-05-06T20:16:49;96718.13;;;31.24;29.48
31595;BME280;18200;48.726;8.892;2023-05-06T20:20:50;96711.94;;;31.40;28.74
31595;BME280;18200;48.726;8.892;2023-05-06T20:24:50;96699.47;;;31.30;28.97
31595;BME280;18200;48.726;8.892;2023-05-06T20:28:52;96702.25;;;30.99;29.37
31595;BME280;18200;48.726;8.892;2023-05-06T20:32:53;96718.94;;;29.92;31.15
31595;BME280;18200;48.726;8.892;2023-05-06T20:36:53;96712.44;;;29.96;31.11
31595;BME280;18200;48.726;8.892;2023-05-06T20:40:55;96710.72;;;29.98;31.05
31595;BME280;18200;48.726;8.892;2023-05-06T20:44:57;96711.13;;;30.31;30.41
31595;BME280;18200;48.726;8.892;2023-05-06T20:48:58;96727.91;;;30.02;31.29
31595;BME280;18200;48.726;8.892;2023-05-06T20:52:59;96705.44;;;30.20;30.90
31595;BME280;18200;48.726;8.892;2023-05-06T20:56:59;96706.84;;;30.30;30.51
31595;BME280;18200;48.726;8.892;2023-05-06T21:01:02;96711.53;;;29.84;30.77
31595;BME280;18200;48.726;8.892;2023-05-06T21:05:02;96702.25;;;30.07;30.63
31595;BME280;18200;48.726;8.892;2023-05-06T21:09:03;96706.69;;;29.79;30.99
31595;BME280;18200;48.726;8.892;2023-05-06T21:13:03;96694.56;;;29.76;30.78
31595;BME280;18200;48.726;8.892;2023-05-06T21:17:03;96694.97;;;29.55;31.02
31595;BME280;18200;48.726;8.892;2023-05-06T21:21:04;96700.31;;;29.24;31.41
31595;BME280;18200;48.726;8.892;2023-05-06T21:25:05;96703.66;;;29.28;31.85
31595;BME280;18200;48.726;8.892;2023-05-06T21:29:05;96701.16;;;29.30;31.91